Time;durP1;ratioP1;P1;durP2;ratioP2;P2;SDS_P1;SDS_P2;PMS_P1;PMS_P2;Temp;Humidity;BMP_temperature;BMP_pressure;BME280_temperature;BME280_humidity;BME280_pressure;Samples;Min_cycle;Max_cycle;Signal;HPM_P1;HPM_P2
2023/06/30 00:02:30;;;;;;;;;;;12.80;81.80;;;;;;4734006;30;19930;-96
2023/06/30 00:04:57;;;;;;;;;;;12.80;82.00;;;;;;4722865;30;19930;-96
2023/06/30 00:07:26;;;;;;;;;;;12.70;81.90;;;;;;4722258;30;19951;-95
2023/06/30 00:10:02;;;;;;;;;;;;;;;;;;;;;
2023/06/30 00:12:36;;;;;;;;;;;12.70;81.70;;;;;;4737055;30;20016;-96
2023/06/30 00:15:04;;;;;;;;;;;12.60;81.80;;;;;;4750138;30;20432;-95
2023/06/30 00:17:39;;;;;;;;;;;12.50;81.70;;;;;;4724366;30;19941;-95
2023/06/30 00:20:18;;;;;;;;;;;12.50;81.70;;;;;;4743045;30;20028;-96
2023/06/30 00:22:44;;;;;;;;;;;12.50;81.60;;;;;;4729660;30;19930;-96
2023/06/30 00:25:10;;;;;;;;;;;12.50;81.60;;;;;;4725965;30;20451;-96
2023/06/30 00:27:43;;;;;;;;;;;12.50;81.70;;;;;;4718378;30;20319;-96
2023/06/30 00:30:09;;;;;;;;;;;12.50;81.50;;;;;;4726760;30;19930;-95
2023/06/30 00:32:35;;;;;;;;;;;12.50;81.60;;;;;;4720077;30;19934;-95
2023/06/30 00:35:05;;;;;;;;;;;12.40;81.60;;;;;;4749294;30;19929;-94
2023/06/30 00:37:34;;;;;;;;;;;12.30;81.60;;;;;;4735851;30;20292;-96
2023/06/30 00:40:10;;;;;;;;;;;;;;;;;;;;;
2023/06/30 00:42:38;;;;;;;;;;;12.30;81.60;;;;;;4746490;30;19934;-96
2023/06/30 00:45:21;;;;;;;;;;;12.30;81.50;;;;;;4738020;30;19933;-94
2023/06/30 00:47:46;;;;;;;;;;;12.30;81.50;;;;;;4732890;30;20471;-96
2023/06/30 00:50:12;;;;;;;;;;;12.30;81.50;;;;;;4740848;30;19985;-95
2023/06/30 00:52:50;;;;;;;;;;;12.30;81.50;;;;;;4713754;30;19969;-96
2023/06/30 00:55:16;;;;;;;;;;;12.30;81.50;;;;;;4732815;30;19934;-94
2023/06/30 00:57:45;;;;;;;;;;;12.20;81.40;;;;;;4737336;30;20560;-96
2023/06/30 01:00:24;;;;;;;;;;;12.20;81.40;;;;;;4740659;30;19933;-94
2023/06/30 01:03:02;;;;;;;;;;;12.20;81.50;;;;;;4728457;30;20402;-94
2023/06/30 01:06:02;;;;;;;;;;;12.20;81.40;;;;;;4744465;30;20025;-96
2023/06/30 01:08:23;;;;;;;;;;;12.20;81.30;;;;;;4735679;30;20350;-96
2023/06/30 01:11:08;;;;;;;;;;;12.20;81.40;;;;;;4730207;30;19973;-96
2023/06/30 01:13:34;;;;;;;;;;;12.10;81.30;;;;;;4702928;30;19936;-96
2023/06/30 01:16:41;;;;;;;;;;;;;;;;;;;;;
2023/06/30 01:19:24;;;;;;;;;;;12.10;81.20;;;;;;4721537;30;19954;-95
2023/06/30 01:21:54;;;;;;;;;;;12.10;81.20;;;;;;4732690;30;20395;-96
2023/06/30 01:24:34;;;;;;;;;;;12.10;81.30;;;;;;4729821;30;19930;-95
2023/06/30 01:27:05;;;;;;;;;;;12.00;81.20;;;;;;4718993;30;19974;-96
2023/06/30 01:29:34;;;;;;;;;;;12.00;81.20;;;;;;4721621;30;19961;-96
2023/06/30 01:32:03;;;;;;;;;;;12.00;81.20;;;;;;4729637;30;20349;-96
2023/06/30 01:34:29;;;;;;;;;;;12.00;81.20;;;;;;4734183;30;19934;-96
2023/06/30 01:40:05;;;;;;;;;;;12.00;81.20;;;;;;4735639;30;20435;-95
2023/06/30 01:42:58;;;;;;;;;;;12.00;81.10;;;;;;4715041;30;19930;-96
2023/06/30 01:45:45;;;;;;;;;;;11.90;81.20;;;;;;4717015;30;20446;-95
2023/06/30 01:48:18;;;;;;;;;;;11.90;81.20;;;;;;4708112;30;19932;-96
2023/06/30 01:51:06;;;;;;;;;;;11.90;81.20;;;;;;4713269;30;19938;-96
2023/06/30 01:53:42;;;;;;;;;;;11.90;81.30;;;;;;4718073;30;20006;-96
2023/06/30 01:56:18;;;;;;;;;;;11.90;81.20;;;;;;4726892;30;19969;-95
2023/06/30 02:02:22;;;;;;;;;;;11.70;81.20;;;;;;4714978;30;19930;-96
2023/06/30 02:04:51;;;;;;;;;;;11.70;81.40;;;;;;4697587;30;20066;-96
2023/06/30 02:07:47;;;;;;;;;;;11.70;81.40;;;;;;4708468;30;19981;-96
2023/06/30 02:10:25;;;;;;;;;;;11.70;81.40;;;;;;4726759;30;20289;-94
2023/06/30 02:16:23;;;;;;;;;;;11.70;81.40;;;;;;4739018;30;19997;-96
2023/06/30 02:18:51;;;;;;;;;;;11.60;81.50;;;;;;4720657;30;19960;-96
2023/06/30 02:21:46;;;;;;;;;;;11.60;81.50;;;;;;4722474;30;20391;-96
2023/06/30 02:24:21;;;;;;;;;;;;;;;;;;;;;
2023/06/30 02:26:54;;;;;;;;;;;11.50;81.50;;;;;;4733303;30;19927;-96
2023/06/30 02:30:13;;;;;;;;;;;;;;;;;;;;;
2023/06/30 02:32:50;;;;;;;;;;;;;;;;;;;;;
2023/06/30 02:35:25;;;;;;;;;;;11.50;81.50;;;;;;4738724;30;19969;-96
2023/06/30 02:37:57;;;;;;;;;;;11.50;81.50;;;;;;4719894;30;20028;-95
2023/06/30 02:40:25;;;;;;;;;;;11.50;81.50;;;;;;4718183;30;19930;-95
2023/06/30 02:45:48;;;;;;;;;;;11.50;81.50;;;;;;4744827;30;19930;-96
2023/06/30 02:48:27;;;;;;;;;;;11.50;81.50;;;;;;4702053;30;19931;-95
2023/06/30 02:53:46;;;;;;;;;;;11.50;81.50;;;;;;4725442;30;20013;-95
2023/06/30 02:56:33;;;;;;;;;;;11.50;81.60;;;;;;4728392;30;20024;-95
2023/06/30 02:59:09;;;;;;;;;;;11.50;81.50;;;;;;4726631;30;19941;-96
2023/06/30 03:01:35;;;;;;;;;;;11.40;81.50;;;;;;4717079;30;19934;-95
2023/06/30 03:04:04;;;;;;;;;;;11.40;81.60;;;;;;4727715;30;19929;-96
2023/06/30 03:06:32;;;;;;;;;;;11.40;81.60;;;;;;4721947;30;20530;-95
2023/06/30 03:08:58;;;;;;;;;;;11.40;81.80;;;;;;4707698;30;19944;-96
2023/06/30 03:11:42;;;;;;;;;;;11.40;81.80;;;;;;4743763;30;19930;-96
2023/06/30 03:14:34;;;;;;;;;;;11.30;81.80;;;;;;4700423;30;20003;-96
2023/06/30 03:17:30;;;;;;;;;;;;;;;;;;;;;
2023/06/30 03:19:59;;;;;;;;;;;11.30;81.90;;;;;;4708254;30;20020;-96
2023/06/30 03:22:38;;;;;;;;;;;11.30;82.00;;;;;;4695992;30;19935;-95
2023/06/30 03:25:19;;;;;;;;;;;11.30;82.00;;;;;;4720575;30;19995;-95
2023/06/30 03:27:53;;;;;;;;;;;11.30;82.10;;;;;;4711002;30;19930;-95
2023/06/30 03:30:24;;;;;;;;;;;11.30;82.10;;;;;;4723424;30;19934;-96
2023/06/30 03:36:13;;;;;;;;;;;11.30;82.20;;;;;;4747844;30;19930;-95
2023/06/30 03:38:39;;;;;;;;;;;11.40;82.20;;;;;;4735903;30;19994;-96
2023/06/30 03:41:31;;;;;;;;;;;11.40;82.20;;;;;;4741714;30;20197;-96
2023/06/30 03:44:18;;;;;;;;;;;;;;;;;;;;;
2023/06/30 03:46:59;;;;;;;;;;;11.40;82.40;;;;;;4748421;30;19926;-96
2023/06/30 03:52:34;;;;;;;;;;;11.40;82.40;;;;;;4721309;30;19987;-95
2023/06/30 03:55:31;;;;;;;;;;;11.40;82.50;;;;;;4748416;30;19931;-95
2023/06/30 03:58:28;;;;;;;;;;;11.40;82.60;;;;;;4727855;30;19934;-95
2023/06/30 04:01:18;;;;;;;;;;;11.40;82.50;;;;;;4725079;30;19937;-96
2023/06/30 04:03:58;;;;;;;;;;;11.50;82.50;;;;;;4719807;30;20019;-96
2023/06/30 04:06:27;;;;;;;;;;;11.50;82.50;;;;;;4733091;30;19947;-96
2023/06/30 04:09:07;;;;;;;;;;;11.50;82.50;;;;;;4710799;30;20072;-96
2023/06/30 04:11:36;;;;;;;;;;;11.50;82.50;;;;;;4738475;30;19937;-96
2023/06/30 04:14:33;;;;;;;;;;;11.50;82.50;;;;;;4722130;30;20175;-96
2023/06/30 04:17:55;;;;;;;;;;;11.50;82.50;;;;;;4731929;30;19945;-96
2023/06/30 04:20:51;;;;;;;;;;;;;;;;;;;;;
2023/06/30 04:30:24;;;;;;;;;;;11.70;82.30;;;;;;4717441;30;19934;-96
2023/06/30 04:36:09;;;;;;;;;;;11.80;82.20;;;;;;4760891;30;19935;-96
2023/06/30 04:38:53;;;;;;;;;;;11.90;82.20;;;;;;4737064;30;19934;-96
2023/06/30 04:41:29;;;;;;;;;;;11.90;82.20;;;;;;4738954;30;19935;-96
2023/06/30 04:47:30;;;;;;;;;;;12.00;82.30;;;;;;4730415;30;19932;-96
2023/06/30 04:50:49;;;;;;;;;;;12.10;82.20;;;;;;4689059;30;19930;-96
2023/06/30 04:53:40;;;;;;;;;;;12.10;82.10;;;;;;4745234;30;19941;-96
2023/06/30 04:56:13;;;;;;;;;;;12.20;82.10;;;;;;4723204;30;19930;-96
2023/06/30 05:02:26;;;;;;;;;;;12.40;82.00;;;;;;4664585;30;20018;-96
2023/06/30 05:05:05;;;;;;;;;;;;;;;;;;;;;
2023/06/30 05:08:05;;;;;;;;;;;12.60;81.80;;;;;;4691831;30;20029;-96
2023/06/30 05:14:21;;;;;;;;;;;;;;;;;;;;;
2023/06/30 05:23:53;;;;;;;;;;;13.50;80.60;;;;;;4654573;30;20552;-95
2023/06/30 05:26:43;;;;;;;;;;;13.50;81.00;;;;;;4607659;30;19932;-93
2023/06/30 05:29:31;;;;;;;;;;;13.60;80.70;;;;;;4611361;30;19932;-96
2023/06/30 05:31:59;;;;;;;;;;;13.70;80.50;;;;;;4720750;30;19934;-96
2023/06/30 05:34:28;;;;;;;;;;;13.70;80.40;;;;;;4724551;30;19968;-96
2023/06/30 05:36:57;;;;;;;;;;;13.80;80.20;;;;;;4714958;30;19934;-96
2023/06/30 05:39:40;;;;;;;;;;;13.80;80.00;;;;;;4751578;30;19934;-96
2023/06/30 05:42:09;;;;;;;;;;;13.90;79.80;;;;;;4726590;30;19953;-95
2023/06/30 05:45:19;;;;;;;;;;;13.90;79.80;;;;;;4738188;30;19930;-95
2023/06/30 05:47:54;;;;;;;;;;;13.90;79.60;;;;;;4727687;30;19937;-96
2023/06/30 05:57:01;;;;;;;;;;;14.30;79.50;;;;;;4730545;30;19972;-95
2023/06/30 05:59:28;;;;;;;;;;;14.50;79.70;;;;;;4727676;30;19937;-96
2023/06/30 06:02:16;;;;;;;;;;;14.60;79.60;;;;;;4739454;30;19941;-96
2023/06/30 06:22:36;;;;;;;;;;;15.60;77.30;;;;;;4695924;30;19949;-95
2023/06/30 06:29:14;;;;;;;;;;;;;;;;;;;;;
2023/06/30 06:38:46;;;;;;;;;;;16.50;75.70;;;;;;4652933;30;20386;-93
2023/06/30 07:22:22;;;;;;;;;;;16.40;73.40;;;;;;4823857;24;19934;-96
2023/06/30 07:25:02;;;;;;;;;;;16.50;74.20;;;;;;4745064;30;19938;-96
2023/06/30 07:28:01;;;;;;;;;;;16.70;73.90;;;;;;4753216;30;19929;-96
2023/06/30 07:31:31;;;;;;;;;;;;;;;;;;;;;
2023/06/30 07:33:58;;;;;;;;;;;;;;;;;;;;;
2023/06/30 07:49:26;;;;;;;;;;;16.70;73.60;;;;;;4680854;30;19946;-96
2023/06/30 07:55:18;;;;;;;;;;;16.60;71.10;;;;;;4661401;30;19939;-96
2023/06/30 08:12:21;;;;;;;;;;;17.10;70.20;;;;;;4601995;31;20382;-96
2023/06/30 08:15:28;;;;;;;;;;;17.10;70.10;;;;;;4581429;31;19940;-96
2023/06/30 08:17:56;;;;;;;;;;;17.10;70.00;;;;;;4529728;31;19942;-95
2023/06/30 08:21:12;;;;;;;;;;;17.20;68.30;;;;;;4571439;31;19997;-95
2023/06/30 08:27:55;;;;;;;;;;;17.20;70.50;;;;;;4540109;31;19942;-94
2023/06/30 08:30:27;;;;;;;;;;;17.10;68.30;;;;;;4574229;31;20021;-96
2023/06/30 08:36:16;;;;;;;;;;;16.90;69.20;;;;;;4568264;31;19964;-92
2023/06/30 08:38:44;;;;;;;;;;;17.00;70.10;;;;;;4604929;31;20001;-92
2023/06/30 08:50:59;;;;;;;;;;;;;;;;;;;;;
2023/06/30 08:53:54;;;;;;;;;;;17.00;68.70;;;;;;4515817;31;19941;-96
2023/06/30 08:56:23;;;;;;;;;;;17.20;67.60;;;;;;4503741;31;20648;-96
2023/06/30 09:19:05;;;;;;;;;;;18.00;64.30;;;;;;4523497;31;20103;-94
2023/06/30 10:19:07;;;;;;;;;;;18.80;62.00;;;;;;4679941;30;19933;-96
2023/06/30 11:11:49;;;;;;;;;;;19.40;57.90;;;;;;4727416;30;19945;-96
2023/06/30 11:14:42;;;;;;;;;;;19.30;58.40;;;;;;4718254;30;19939;-94
2023/06/30 11:28:28;;;;;;;;;;;18.90;59.20;;;;;;4582475;30;20032;-96
2023/06/30 11:30:58;;;;;;;;;;;19.10;58.40;;;;;;4589206;31;19940;-92
2023/06/30 11:33:29;;;;;;;;;;;19.30;59.10;;;;;;4610829;30;19962;-93
2023/06/30 11:35:59;;;;;;;;;;;19.40;57.50;;;;;;4615755;30;19940;-92
2023/06/30 11:38:31;;;;;;;;;;;19.40;58.30;;;;;;4643258;30;20433;-95
2023/06/30 11:41:00;;;;;;;;;;;19.40;58.60;;;;;;4649819;30;19939;-92
2023/06/30 11:43:40;;;;;;;;;;;19.40;58.20;;;;;;4631711;30;19939;-91
2023/06/30 11:46:09;;;;;;;;;;;19.30;57.90;;;;;;4645537;30;19997;-91
2023/06/30 11:48:38;;;;;;;;;;;19.20;58.60;;;;;;4664695;30;19950;-92
2023/06/30 11:51:07;;;;;;;;;;;19.20;59.30;;;;;;4710258;30;19973;-92
2023/06/30 11:53:42;;;;;;;;;;;19.30;59.00;;;;;;4693938;30;19965;-91
2023/06/30 11:56:10;;;;;;;;;;;19.30;58.50;;;;;;4693980;30;19945;-93
2023/06/30 11:58:44;;;;;;;;;;;19.40;57.50;;;;;;4678523;30;19977;-91
2023/06/30 12:01:16;;;;;;;;;;;19.50;58.90;;;;;;4700510;30;19938;-96
2023/06/30 12:04:07;;;;;;;;;;;19.60;58.00;;;;;;4720444;30;20421;-94
2023/06/30 12:06:35;;;;;;;;;;;19.70;57.90;;;;;;4701549;30;20582;-94
2023/06/30 12:09:43;;;;;;;;;;;19.70;57.70;;;;;;4697031;30;19970;-94
2023/06/30 12:12:27;;;;;;;;;;;19.70;56.00;;;;;;4661456;30;19939;-89
2023/06/30 12:15:02;;;;;;;;;;;19.70;57.50;;;;;;4696554;30;19938;-93
2023/06/30 12:17:39;;;;;;;;;;;19.70;57.30;;;;;;4707515;30;19974;-96
2023/06/30 12:20:20;;;;;;;;;;;19.80;58.00;;;;;;4703447;30;19945;-92
2023/06/30 12:22:50;;;;;;;;;;;20.00;57.50;;;;;;4704558;30;19938;-91
2023/06/30 12:25:55;;;;;;;;;;;20.10;57.60;;;;;;4695400;30;19961;-96
2023/06/30 12:28:23;;;;;;;;;;;20.20;56.10;;;;;;4672400;30;20424;-91
2023/06/30 12:30:59;;;;;;;;;;;20.30;57.60;;;;;;4664484;30;20020;-91
2023/06/30 12:34:00;;;;;;;;;;;20.30;56.90;;;;;;4650441;30;20102;-94
2023/06/30 12:36:28;;;;;;;;;;;20.40;57.70;;;;;;4658634;30;19931;-93
2023/06/30 12:38:55;;;;;;;;;;;20.50;57.30;;;;;;4690714;30;19938;-91
2023/06/30 12:41:22;;;;;;;;;;;20.60;58.10;;;;;;4716477;30;19939;-95
2023/06/30 12:58:22;;;;;;;;;;;;;;;;;;;;;
2023/06/30 13:24:38;;;;;;;;;;;20.70;55.30;;;;;;4605929;31;20035;-96
2023/06/30 14:32:01;;;;;;;;;;;21.30;56.60;;;;;;5564472;22;15834456;-89
2023/06/30 14:34:26;;;;;;;;;;;21.30;55.90;;;;;;6034690;23;19999;-89
2023/06/30 14:36:55;;;;;;;;;;;21.30;56.00;;;;;;6030814;23;19959;-90
2023/06/30 14:39:20;;;;;;;;;;;21.40;56.70;;;;;;6083727;23;19921;-90
2023/06/30 14:41:49;;;;;;;;;;;21.40;57.90;;;;;;6063221;23;20367;-92
2023/06/30 14:44:25;;;;;;;;;;;;;;;;;;;;;
2023/06/30 14:47:34;;;;;;;;;;;21.30;56.40;;;;;;6144078;23;19920;-96
2023/06/30 14:53:50;;;;;;;;;;;21.20;56.80;;;;;;6127193;23;19944;-93
2023/06/30 14:56:16;;;;;;;;;;;21.10;57.40;;;;;;6059411;23;20012;-94
2023/06/30 14:58:59;;;;;;;;;;;;;;;;;;;;;
2023/06/30 15:01:40;;;;;;;;;;;20.90;56.70;;;;;;6175523;23;19951;-95
2023/06/30 15:04:08;;;;;;;;;;;20.80;57.70;;;;;;6139474;23;19924;-91
2023/06/30 15:06:45;;;;;;;;;;;20.60;57.50;;;;;;6182371;23;20516;-95
2023/06/30 15:09:14;;;;;;;;;;;20.50;58.60;;;;;;6147136;23;19923;-92
2023/06/30 15:14:50;;;;;;;;;;;;;;;;;;;;;
2023/06/30 15:17:35;;;;;;;;;;;20.40;59.50;;;;;;6176309;23;19991;-91
2023/06/30 15:20:31;;;;;;;;;;;;;;;;;;;;;
2023/06/30 15:23:17;;;;;;;;;;;20.90;58.60;;;;;;6149820;23;20688;-94
2023/06/30 15:25:53;;;;;;;;;;;;;;;;;;;;;
2023/06/30 15:28:25;;;;;;;;;;;21.40;57.80;;;;;;6177866;23;19920;-93
2023/06/30 15:31:02;;;;;;;;;;;21.50;57.60;;;;;;6160568;23;19927;-94
2023/06/30 15:33:33;;;;;;;;;;;21.70;57.40;;;;;;6126514;23;19921;-93
2023/06/30 15:36:21;;;;;;;;;;;21.60;57.90;;;;;;6132686;23;19924;-94
2023/06/30 15:39:16;;;;;;;;;;;21.50;57.80;;;;;;6158497;23;19928;-94
2023/06/30 15:41:45;;;;;;;;;;;21.30;58.20;;;;;;6151467;23;19920;-92
2023/06/30 15:44:11;;;;;;;;;;;21.00;58.80;;;;;;6147517;23;19920;-95
2023/06/30 15:47:00;;;;;;;;;;;20.80;59.30;;;;;;6161893;23;19920;-95
2023/06/30 15:49:27;;;;;;;;;;;20.70;58.90;;;;;;6170106;23;19963;-94
2023/06/30 15:51:56;;;;;;;;;;;20.50;59.30;;;;;;6162814;23;19959;-95
2023/06/30 15:54:21;;;;;;;;;;;20.40;60.20;;;;;;6137546;23;20430;-96
2023/06/30 15:56:49;;;;;;;;;;;20.30;61.10;;;;;;6179049;23;19916;-96
2023/06/30 15:59:15;;;;;;;;;;;20.20;61.40;;;;;;6157863;23;19920;-95
2023/06/30 16:01:43;;;;;;;;;;;20.00;62.10;;;;;;6160351;23;19927;-94
2023/06/30 16:04:11;;;;;;;;;;;20.00;61.70;;;;;;6121939;23;19920;-96
2023/06/30 16:06:39;;;;;;;;;;;19.90;62.30;;;;;;6157667;23;20439;-94
2023/06/30 16:09:13;;;;;;;;;;;19.70;61.90;;;;;;6113115;23;20446;-94
2023/06/30 16:49:45;;;;;;;;;;;;;;;;;;;;;
2023/06/30 17:30:09;;;;;;;;;;;;;;;;;;;;;
2023/06/30 18:02:19;;;;;;;;;;;19.50;57.40;;;;;;5758078;24;20008;-92
2023/06/30 18:04:57;;;;;;;;;;;;;;;;;;;;;
2023/06/30 18:07:25;;;;;;;;;;;19.40;58.00;;;;;;5746110;24;21317;-93
2023/06/30 18:09:51;;;;;;;;;;;19.40;59.00;;;;;;5760545;24;19941;-95
2023/06/30 18:13:07;;;;;;;;;;;;;;;;;;;;;
